Terminal Aerodrome Forecast
Issued by NWS

Home | Current Version | Previous Version | Text Only | Print | Product List | Glossary On
Versions: 1 2 3 4 5 6 7 8 9 10 11 12 13 14 15
000
FTUS45 KLKN 272320
TAFTPH
TAF
KTPH 272320Z 2800/2824 34035G45KT P6SM SCT200
     FM280400 35015G25KT P6SM FEW060
     FM281500 33025G35KT P6SM SCT060
     FM282100 35030G45KT P6SM SCT060=

USA.gov is the U.S. government's official web portal to all federal, state and local government web resources and services.